South Cave, United Kingdom
Current Conditions -  °F | °C
As of 11:50 AM on Thursday 30 Oct 2014 (Local Time) from EGXV Reporting Station
Haze Haze  
Wind Chill: 15°   Ceiling: 2700
Heat Index: 15°   Visibility: 2.5mi
Dew Point: 15°   Wind: 10mph
Humidity: 100%   Direction: 210°SSW
Pressure: 29.97"   Gusts: NA
Location:  53.77°N, 0.6°W
Report Text: EGXV 301150Z AUTO 21009KT 4100 BR FEW006/// SCT013/// BKN027/// 15/15 Q1015 RERA
Loading
Personal Weather Stations






























Interactive Weather Map
Tropical Storm Tracking
New forecast layout! Learn more

10-Day Weather Forecast

Advertisements
Track Severe Weather on mobile